Time;durP1;ratioP1;P1;durP2;ratioP2;P2;SDS_P1;SDS_P2;PMS_P1;PMS_P2;Temp;Humidity;BMP_temperature;BMP_pressure;BME280_temperature;BME280_humidity;BME280_pressure;Samples;Min_cycle;Max_cycle;Signal;HPM_P1;HPM_P2
2022/02/01 00:00:24;;;;;;;1.67;1.40;;;3.50;98.20;;;;;;4983711;28;20449;-76
2022/02/01 00:02:55;;;;;;;1.60;1.43;;;3.50;98.20;;;;;;4991585;28;20558;-75
2022/02/01 00:05:27;;;;;;;1.70;1.60;;;3.50;98.20;;;;;;4987853;28;20957;-75
2022/02/01 00:08:03;;;;;;;1.70;1.53;;;3.40;98.20;;;;;;4992727;28;21035;-75
2022/02/01 00:10:43;;;;;;;1.70;1.50;;;3.40;98.20;;;;;;4985344;28;20481;-75
2022/02/01 00:13:16;;;;;;;1.60;1.40;;;3.40;98.20;;;;;;4992038;28;20484;-75
2022/02/01 00:16:16;;;;;;;1.63;1.40;;;3.40;98.20;;;;;;4984153;28;20468;-75
2022/02/01 00:19:08;;;;;;;1.70;1.50;;;3.30;98.20;;;;;;4988899;28;20481;-75
2022/02/01 00:35:37;;;;;;;1.63;1.50;;;3.20;98.20;;;;;;4987434;28;20615;-75
2022/02/01 00:38:14;;;;;;;1.70;1.50;;;3.20;98.20;;;;;;4988287;28;20487;-75
2022/02/01 00:40:41;;;;;;;1.70;1.60;;;3.20;98.20;;;;;;4985012;28;20464;-75
2022/02/01 00:43:08;;;;;;;1.70;1.47;;;3.10;98.20;;;;;;4989212;28;21036;-75
2022/02/01 00:45:35;;;;;;;1.63;1.40;;;3.10;98.20;;;;;;4983682;28;20469;-75
2022/02/01 00:48:04;;;;;;;1.70;1.50;;;3.10;98.20;;;;;;4992295;28;20547;-74
2022/02/01 00:50:33;;;;;;;1.70;1.40;;;3.10;98.20;;;;;;4985184;28;20492;-75
2022/02/01 00:52:59;;;;;;;1.70;1.50;;;3.10;98.20;;;;;;4989217;28;20529;-75
2022/02/01 00:55:26;;;;;;;1.67;1.40;;;3.10;98.20;;;;;;4984594;28;20496;-75
2022/02/01 00:57:53;;;;;;;1.70;1.60;;;3.10;98.20;;;;;;4978191;28;20880;-75
2022/02/01 01:00:20;;;;;;;1.70;1.50;;;3.10;98.20;;;;;;4989893;28;20996;-76
2022/02/01 01:02:47;;;;;;;1.80;1.70;;;3.10;98.20;;;;;;4995237;28;20579;-75
2022/02/01 01:05:15;;;;;;;1.60;1.40;;;3.10;98.20;;;;;;4989237;28;20468;-75
2022/02/01 01:07:42;;;;;;;1.70;1.50;;;3.10;98.20;;;;;;4993608;28;20475;-75
2022/02/01 01:10:10;;;;;;;1.67;1.50;;;3.10;98.20;;;;;;4992000;28;20465;-75
2022/02/01 01:12:46;;;;;;;1.70;1.40;;;3.10;98.20;;;;;;4994897;28;20491;-75
2022/02/01 01:15:21;;;;;;;1.67;1.40;;;3.10;98.20;;;;;;4987548;28;20476;-75
2022/02/01 01:45:33;;;;;;;1.60;1.40;;;3.20;98.20;;;;;;4939980;28;20461;-75
2022/02/01 01:53:29;;;;;;;1.63;1.40;;;3.30;98.20;;;;;;4977943;28;20512;-75
2022/02/01 01:55:56;;;;;;;1.67;1.40;;;3.30;98.20;;;;;;4973382;28;20488;-75
2022/02/01 01:58:25;;;;;;;1.60;1.40;;;3.30;98.20;;;;;;5002082;28;21011;-75
2022/02/01 02:03:35;;;;;;;1.73;1.63;;;3.30;98.20;;;;;;5000700;28;20583;-75
2022/02/01 02:06:02;;;;;;;1.70;1.60;;;3.30;98.20;;;;;;4980376;28;20469;-74
2022/02/01 02:08:31;;;;;;;1.60;1.37;;;3.30;98.20;;;;;;4989583;28;20703;-75
2022/02/01 02:11:02;;;;;;;1.63;1.40;;;3.40;98.20;;;;;;4971178;28;20461;-75
2022/02/01 02:16:16;;;;;;;1.93;1.77;;;3.40;98.20;;;;;;4959188;28;20551;-75
2022/02/01 02:18:42;;;;;;;1.67;1.40;;;3.40;98.20;;;;;;4992496;28;20484;-75
2022/02/01 02:21:11;;;;;;;1.70;1.50;;;3.40;98.20;;;;;;4973431;28;20499;-75
2022/02/01 02:23:38;;;;;;;1.70;1.50;;;3.40;98.20;;;;;;4986990;28;20481;-75
2022/02/01 02:26:07;;;;;;;1.70;1.50;;;3.40;98.20;;;;;;4974287;28;20728;-75
2022/02/01 02:28:35;;;;;;;1.67;1.40;;;3.40;98.20;;;;;;5001398;28;20953;-75
2022/02/01 02:31:02;;;;;;;2.43;2.23;;;3.40;98.20;;;;;;4979627;28;20580;-75
2022/02/01 02:33:29;;;;;;;1.70;1.60;;;3.40;98.20;;;;;;5001720;28;20488;-75
2022/02/01 02:36:03;;;;;;;1.70;1.50;;;3.40;98.20;;;;;;4973355;28;20481;-75
2022/02/01 02:38:37;;;;;;;1.67;1.40;;;3.40;98.20;;;;;;4999052;28;20506;-75
2022/02/01 02:41:27;;;;;;;1.67;1.47;;;3.40;98.20;;;;;;4978774;28;20465;-75
2022/02/01 02:46:41;;;;;;;1.63;1.40;;;3.40;98.20;;;;;;4980518;28;20506;-73
2022/02/01 02:49:09;;;;;;;1.63;1.30;;;3.40;98.20;;;;;;4994466;28;20548;-73
2022/02/01 02:51:36;;;;;;;1.63;1.30;;;3.40;98.20;;;;;;4984059;28;20491;-73
2022/02/01 02:54:06;;;;;;;1.70;1.50;;;3.40;98.20;;;;;;4989468;28;20575;-73
2022/02/01 02:56:33;;;;;;;1.70;1.47;;;3.40;98.20;;;;;;4973521;28;20488;-73
2022/02/01 02:59:00;;;;;;;1.70;1.53;;;3.40;98.20;;;;;;4987735;28;21008;-73
2022/02/01 03:01:27;;;;;;;1.63;1.40;;;3.40;98.20;;;;;;4979176;28;20499;-73
2022/02/01 03:03:55;;;;;;;1.70;1.40;;;3.40;98.20;;;;;;4996333;28;20579;-74
2022/02/01 03:06:22;;;;;;;1.70;1.40;;;3.40;98.20;;;;;;4982506;28;20480;-73
2022/02/01 03:08:49;;;;;;;1.63;1.40;;;3.40;98.20;;;;;;4999154;28;20448;-73
2022/02/01 03:11:17;;;;;;;1.67;1.43;;;3.40;98.20;;;;;;4973039;28;20478;-74
2022/02/01 03:13:50;;;;;;;1.60;1.40;;;3.40;98.20;;;;;;4986502;28;20508;-74
2022/02/01 03:16:33;;;;;;;1.60;1.40;;;3.40;98.20;;;;;;4970554;28;20539;-74
2022/02/01 03:21:44;;;;;;;1.67;1.30;;;3.40;98.20;;;;;;4982110;28;20480;-73
2022/02/01 03:24:11;;;;;;;1.70;1.50;;;3.40;98.20;;;;;;4992913;28;20492;-73
2022/02/01 03:26:39;;;;;;;1.60;1.40;;;3.40;98.20;;;;;;4975999;28;20500;-73
2022/02/01 03:29:06;;;;;;;1.63;1.40;;;3.40;98.20;;;;;;4996065;28;20455;-74
2022/02/01 03:31:32;;;;;;;1.70;1.50;;;3.40;98.20;;;;;;4975718;28;20515;-73
2022/02/01 03:33:59;;;;;;;1.70;1.40;;;3.40;98.20;;;;;;4994414;28;20481;-73
2022/02/01 03:36:26;;;;;;;1.70;1.50;;;3.40;98.20;;;;;;4976210;28;20497;-73
2022/02/01 03:38:53;;;;;;;1.70;1.60;;;3.40;98.20;;;;;;4986959;28;20491;-74
2022/02/01 03:41:20;;;;;;;1.67;1.30;;;3.40;98.20;;;;;;4977605;28;20849;-74
2022/02/01 03:43:49;;;;;;;1.63;1.30;;;3.40;98.20;;;;;;4998816;28;20488;-73
2022/02/01 03:46:16;;;;;;;1.70;1.50;;;3.40;98.20;;;;;;4973294;28;21800;-74
2022/02/01 03:48:43;;;;;;;1.70;1.50;;;3.40;98.20;;;;;;4986837;28;20477;-75
2022/02/01 03:51:10;;;;;;;1.67;1.40;;;3.40;98.20;;;;;;4978829;28;20480;-73
2022/02/01 03:53:37;;;;;;;1.60;1.30;;;3.40;98.20;;;;;;4999101;28;20489;-73
2022/02/01 03:56:04;;;;;;;1.67;1.40;;;3.40;98.20;;;;;;4977008;28;20488;-73
2022/02/01 03:58:31;;;;;;;1.70;1.60;;;3.40;98.20;;;;;;4996140;28;20485;-74
2022/02/01 04:00:59;;;;;;;1.63;1.40;;;3.40;98.20;;;;;;4976639;28;20852;-74
2022/02/01 04:03:26;;;;;;;1.70;1.40;;;3.40;98.20;;;;;;4985954;28;20889;-74
2022/02/01 04:05:53;;;;;;;1.67;1.33;;;3.40;98.20;;;;;;4978266;28;20922;-74
2022/02/01 04:08:22;;;;;;;1.70;1.40;;;3.40;98.20;;;;;;4996000;28;20465;-73
2022/02/01 04:10:50;;;;;;;1.70;1.53;;;3.40;98.20;;;;;;4975791;28;20942;-73
2022/02/01 04:13:19;;;;;;;1.60;1.40;;;3.40;98.20;;;;;;5000919;28;21064;-73
2022/02/01 04:15:45;;;;;;;1.67;1.30;;;3.40;98.20;;;;;;5026983;23;20855;-77
2022/02/01 04:18:14;;;;;;;1.60;1.40;;;3.40;98.20;;;;;;4998699;28;20653;-76
2022/02/01 04:20:41;;;;;;;1.70;1.40;;;3.40;98.20;;;;;;5007066;28;20487;-77
2022/02/01 04:23:07;;;;;;;1.70;1.50;;;3.40;98.20;;;;;;5017072;28;20487;-76
2022/02/01 04:25:34;;;;;;;1.70;1.50;;;3.40;98.20;;;;;;5003814;28;20485;-77
2022/02/01 04:28:01;;;;;;;1.70;1.40;;;3.40;98.20;;;;;;5002654;28;20495;-79
2022/02/01 04:30:28;;;;;;;1.70;1.53;;;3.40;98.20;;;;;;5009540;28;20463;-77
2022/02/01 04:32:56;;;;;;;1.70;1.40;;;3.40;98.20;;;;;;5020155;28;20533;-78
2022/02/01 04:35:27;;;;;;;1.67;1.40;;;3.40;98.20;;;;;;5014515;28;20483;-77
2022/02/01 04:37:54;;;;;;;1.63;1.40;;;3.40;98.20;;;;;;5012191;28;20817;-78
2022/02/01 04:40:23;;;;;;;1.60;1.40;;;3.40;98.20;;;;;;5006801;28;20460;-77
2022/02/01 04:42:50;;;;;;;1.63;1.40;;;3.40;98.20;;;;;;4997734;28;20498;-76
2022/02/01 04:45:20;;;;;;;1.63;1.40;;;3.40;98.20;;;;;;5001248;28;20504;-77
2022/02/01 04:47:47;;;;;;;1.70;1.60;;;3.40;98.20;;;;;;4996995;28;20503;-77
2022/02/01 04:50:17;;;;;;;1.70;1.60;;;3.40;98.20;;;;;;5008235;28;20474;-78
2022/02/01 04:52:49;;;;;;;1.70;1.50;;;3.50;98.20;;;;;;5014871;28;20913;-79
2022/02/01 04:55:17;;;;;;;1.70;1.50;;;3.50;98.20;;;;;;5006341;28;20512;-74
2022/02/01 04:57:53;;;;;;;1.70;1.50;;;3.50;98.20;;;;;;4999187;28;20484;-76
2022/02/01 05:00:22;;;;;;;1.63;1.50;;;3.50;98.20;;;;;;5011638;28;20459;-78
2022/02/01 05:02:49;;;;;;;1.63;1.40;;;3.50;98.20;;;;;;5002566;28;20496;-77
2022/02/01 05:05:16;;;;;;;1.60;1.40;;;3.50;98.20;;;;;;5010948;28;20772;-76
2022/02/01 05:07:44;;;;;;;1.60;1.40;;;3.60;98.20;;;;;;4999799;28;20476;-76
2022/02/01 05:10:11;;;;;;;1.70;1.50;;;3.60;98.20;;;;;;5008880;28;20467;-77
2022/02/01 05:12:50;;;;;;;1.63;1.40;;;3.60;98.20;;;;;;5002175;28;20875;-78
2022/02/01 05:15:17;;;;;;;1.60;1.40;;;3.60;98.20;;;;;;5007475;28;20500;-77
2022/02/01 05:17:52;;;;;;;1.60;1.37;;;3.60;98.20;;;;;;4992374;28;21144;-76
2022/02/01 05:20:26;;;;;;;1.60;1.30;;;3.60;98.20;;;;;;5012110;28;20509;-79
2022/02/01 05:22:55;;;;;;;1.70;1.50;;;3.60;98.20;;;;;;4999932;28;21220;-80
2022/02/01 05:25:27;;;;;;;1.70;1.40;;;3.60;98.20;;;;;;5003812;28;20485;-77
2022/02/01 05:27:57;;;;;;;1.63;1.30;;;3.70;98.20;;;;;;4999399;28;20486;-76
2022/02/01 05:30:24;;;;;;;1.60;1.40;;;3.60;98.20;;;;;;5011496;28;20464;-78
2022/02/01 05:32:51;;;;;;;1.70;1.40;;;3.70;98.20;;;;;;4999358;28;20756;-78
2022/02/01 05:35:18;;;;;;;1.63;1.40;;;3.70;98.20;;;;;;5010851;28;20484;-74
2022/02/01 05:37:45;;;;;;;1.70;1.60;;;3.70;98.20;;;;;;4996703;28;20491;-76
2022/02/01 05:40:14;;;;;;;1.63;1.40;;;3.70;98.20;;;;;;5010653;28;20475;-78
2022/02/01 05:42:46;;;;;;;1.60;1.40;;;3.70;98.20;;;;;;5000826;28;20830;-78
2022/02/01 05:45:13;;;;;;;1.60;1.30;;;3.70;98.20;;;;;;5003828;28;20487;-75
2022/02/01 05:47:39;;;;;;;1.70;1.50;;;3.70;98.20;;;;;;5000108;28;20480;-76
2022/02/01 05:50:08;;;;;;;1.63;1.40;;;3.70;98.20;;;;;;5013173;28;20463;-79
2022/02/01 05:52:34;;;;;;;1.70;1.40;;;3.70;98.20;;;;;;5001033;28;20483;-77
2022/02/01 05:55:01;;;;;;;1.60;1.40;;;3.70;98.20;;;;;;5006319;28;21007;-76
2022/02/01 05:57:29;;;;;;;1.70;1.40;;;3.70;98.20;;;;;;4998042;28;20935;-76
2022/02/01 05:59:56;;;;;;;1.70;1.50;;;3.70;98.20;;;;;;5011752;28;20488;-79
2022/02/01 06:02:23;;;;;;;1.67;1.40;;;3.70;98.20;;;;;;5008347;28;20483;-76
2022/02/01 06:04:50;;;;;;;1.70;1.50;;;3.70;98.20;;;;;;5015942;28;20480;-78
2022/02/01 06:07:17;;;;;;;1.70;1.43;;;3.70;98.20;;;;;;5002059;28;20492;-78
2022/02/01 06:09:44;;;;;;;1.67;1.40;;;3.70;98.20;;;;;;5013277;28;20471;-78
2022/02/01 06:12:11;;;;;;;1.60;1.30;;;3.70;98.20;;;;;;4996772;28;20510;-77
2022/02/01 06:14:39;;;;;;;1.60;1.40;;;3.70;98.20;;;;;;5010853;28;20495;-76
2022/02/01 06:17:06;;;;;;;1.60;1.40;;;3.70;98.20;;;;;;4992746;28;20484;-75
2022/02/01 06:19:34;;;;;;;1.60;1.40;;;3.70;98.20;;;;;;5007572;28;21022;-75
2022/02/01 06:22:01;;;;;;;1.60;1.30;;;3.70;98.20;;;;;;4994310;28;20488;-75
2022/02/01 06:24:28;;;;;;;1.70;1.60;;;3.70;98.20;;;;;;5001390;28;20484;-75
2022/02/01 06:26:55;;;;;;;1.60;1.40;;;3.70;98.20;;;;;;4989961;28;20480;-77
2022/02/01 06:29:22;;;;;;;1.70;1.50;;;3.70;98.20;;;;;;5008169;28;20859;-74
2022/02/01 06:31:50;;;;;;;1.63;1.30;;;3.70;98.20;;;;;;5005520;28;20491;-75
2022/02/01 06:34:16;;;;;;;1.60;1.30;;;3.70;98.20;;;;;;5014709;28;20484;-75
2022/02/01 06:36:43;;;;;;;1.60;1.40;;;3.70;98.20;;;;;;4992426;28;20579;-75
2022/02/01 06:39:11;;;;;;;1.70;1.50;;;3.70;98.20;;;;;;5003443;28;20492;-74
2022/02/01 06:41:38;;;;;;;1.70;1.40;;;3.70;98.20;;;;;;4995262;28;20569;-75
2022/02/01 06:44:06;;;;;;;1.67;1.30;;;3.70;98.20;;;;;;5003947;28;20487;-75
2022/02/01 06:46:34;;;;;;;1.70;1.40;;;3.80;98.20;;;;;;4990332;28;20480;-74
2022/02/01 06:49:03;;;;;;;1.70;1.40;;;3.80;98.20;;;;;;5002609;28;20551;-75
2022/02/01 06:51:30;;;;;;;1.70;1.50;;;3.80;98.20;;;;;;4998972;28;20487;-74
2022/02/01 06:53:57;;;;;;;1.70;1.47;;;3.80;98.20;;;;;;5016184;28;20730;-74
2022/02/01 06:56:29;;;;;;;1.63;1.40;;;3.80;98.20;;;;;;4993986;28;20503;-74
2022/02/01 06:58:57;;;;;;;1.63;1.40;;;3.90;98.20;;;;;;4997496;28;20847;-74
2022/02/01 07:01:24;;;;;;;1.70;1.40;;;3.90;98.20;;;;;;4993170;28;20851;-75
2022/02/01 07:03:51;;;;;;;1.63;1.40;;;3.90;98.20;;;;;;5013507;28;20959;-74
2022/02/01 07:06:20;;;;;;;1.70;1.47;;;3.90;98.20;;;;;;4997344;28;20491;-74
2022/02/01 07:08:48;;;;;;;1.70;1.50;;;3.90;98.20;;;;;;5014504;28;20464;-74
2022/02/01 07:11:16;;;;;;;1.70;1.53;;;4.00;98.20;;;;;;4998674;28;20558;-75
2022/02/01 07:13:45;;;;;;;1.60;1.40;;;4.00;98.20;;;;;;5011623;28;20461;-74
2022/02/01 07:16:12;;;;;;;1.70;1.50;;;4.00;98.20;;;;;;4988452;28;20846;-75
2022/02/01 07:18:39;;;;;;;1.70;1.40;;;4.00;98.20;;;;;;5001600;28;20605;-75
2022/02/01 07:21:06;;;;;;;1.63;1.50;;;4.00;98.20;;;;;;4995446;28;20488;-75
2022/02/01 07:23:34;;;;;;;1.70;1.43;;;4.00;98.20;;;;;;5016024;28;20987;-75
2022/02/01 07:26:02;;;;;;;1.63;1.33;;;4.10;98.20;;;;;;4993352;28;20495;-74
2022/02/01 07:28:30;;;;;;;1.60;1.30;;;4.10;98.20;;;;;;5014338;28;20461;-76
2022/02/01 07:30:59;;;;;;;1.70;1.40;;;4.10;98.20;;;;;;4990481;28;20868;-76
2022/02/01 07:33:26;;;;;;;1.70;1.50;;;4.10;98.20;;;;;;5002747;28;20472;-74
2022/02/01 07:35:53;;;;;;;1.70;1.50;;;4.20;98.20;;;;;;4992329;28;20484;-75
2022/02/01 07:38:23;;;;;;;1.70;1.40;;;4.20;98.20;;;;;;5002811;28;20467;-74
2022/02/01 07:40:51;;;;;;;1.70;1.47;;;4.20;98.20;;;;;;4991762;28;20474;-75
2022/02/01 07:43:19;;;;;;;1.70;1.40;;;4.30;98.20;;;;;;5002237;28;20483;-75
2022/02/01 07:45:47;;;;;;;1.60;1.30;;;4.30;98.20;;;;;;4996619;28;20495;-76
2022/02/01 07:48:15;;;;;;;1.67;1.40;;;4.30;98.20;;;;;;4996868;28;20479;-75
2022/02/01 07:50:43;;;;;;;1.63;1.30;;;4.30;98.20;;;;;;5000986;28;20518;-76
2022/02/01 07:53:11;;;;;;;1.63;1.40;;;4.30;98.20;;;;;;5008390;28;20491;-75
2022/02/01 07:55:38;;;;;;;1.63;1.37;;;4.40;98.20;;;;;;4998955;28;20487;-76
2022/02/01 07:58:06;;;;;;;1.70;1.57;;;4.40;98.20;;;;;;4991094;28;21299;-76
2022/02/01 08:00:33;;;;;;;1.70;1.47;;;4.40;98.20;;;;;;5001266;28;20670;-76
2022/02/01 08:03:00;;;;;;;2.53;2.33;;;4.40;98.20;;;;;;5007970;28;20486;-75
2022/02/01 08:05:30;;;;;;;1.70;1.40;;;4.50;98.20;;;;;;4998522;28;20494;-75
2022/02/01 08:07:59;;;;;;;1.60;1.30;;;4.50;98.20;;;;;;4986514;28;20489;-75
2022/02/01 08:10:28;;;;;;;1.70;1.40;;;4.50;98.20;;;;;;5002078;28;20472;-75
2022/02/01 08:18:33;;;;;;;1.67;1.43;;;4.60;98.20;;;;;;4988725;28;20479;-75
2022/02/01 08:21:03;;;;;;;1.60;1.40;;;4.60;98.20;;;;;;4990480;28;20464;-75
2022/02/01 08:23:30;;;;;;;1.60;1.37;;;4.60;98.20;;;;;;5015185;28;20473;-75
2022/02/01 08:25:58;;;;;;;1.70;1.40;;;4.60;98.20;;;;;;4992367;28;20488;-74
2022/02/01 08:28:26;;;;;;;1.70;1.40;;;4.70;98.20;;;;;;5016756;28;21028;-74
2022/02/01 08:30:55;;;;;;;1.60;1.30;;;4.70;98.20;;;;;;4993272;28;20502;-75
2022/02/01 08:33:23;;;;;;;1.60;1.40;;;4.70;98.20;;;;;;5019447;28;20968;-75
2022/02/01 08:35:50;;;;;;;1.60;1.30;;;4.80;98.20;;;;;;4990570;28;20487;-74
2022/02/01 08:38:17;;;;;;;1.60;1.40;;;4.80;98.20;;;;;;5018082;28;20475;-74
2022/02/01 08:40:44;;;;;;;1.70;1.47;;;4.80;98.20;;;;;;4998631;28;20842;-74
2022/02/01 08:43:11;;;;;;;1.60;1.30;;;4.80;98.20;;;;;;4987212;28;20475;-74
2022/02/01 08:45:38;;;;;;;1.63;1.30;;;4.80;98.20;;;;;;5001035;28;20488;-73
2022/02/01 08:48:06;;;;;;;1.60;1.37;;;4.80;98.20;;;;;;4987779;28;20569;-74
2022/02/01 08:50:35;;;;;;;1.60;1.30;;;4.70;98.20;;;;;;5001402;28;20456;-75
2022/02/01 08:53:12;;;;;;;1.63;1.30;;;4.70;98.20;;;;;;4991948;28;20483;-74
2022/02/01 08:55:49;;;;;;;1.70;1.40;;;4.70;98.20;;;;;;4996059;28;20481;-74
2022/02/01 08:58:16;;;;;;;1.67;1.37;;;4.70;98.20;;;;;;4990521;28;20484;-74
2022/02/01 09:00:43;;;;;;;1.60;1.30;;;4.70;98.20;;;;;;5003131;28;20495;-74
2022/02/01 09:03:13;;;;;;;1.60;1.30;;;4.70;98.20;;;;;;5009607;28;20480;-73
2022/02/01 09:05:40;;;;;;;1.60;1.30;;;4.60;98.20;;;;;;5006395;28;20483;-74
2022/02/01 09:08:07;;;;;;;1.60;1.20;;;4.60;98.20;;;;;;4994969;28;20495;-74
2022/02/01 09:10:34;;;;;;;1.60;1.30;;;4.70;98.20;;;;;;5006670;28;20482;-74
2022/02/01 09:13:01;;;;;;;1.60;1.30;;;4.70;98.20;;;;;;4993964;28;20488;-74
2022/02/01 09:15:28;;;;;;;1.60;1.30;;;4.70;98.20;;;;;;4995349;28;20892;-74
2022/02/01 09:17:56;;;;;;;1.60;1.30;;;4.70;98.20;;;;;;4992512;28;20494;-73
2022/02/01 09:20:25;;;;;;;1.60;1.40;;;4.70;98.20;;;;;;5004041;28;20492;-74
2022/02/01 09:22:52;;;;;;;1.63;1.40;;;4.80;98.20;;;;;;4993330;28;20488;-73
2022/02/01 09:25:19;;;;;;;1.60;1.30;;;4.80;98.20;;;;;;4998062;28;20989;-73
2022/02/01 09:27:46;;;;;;;1.67;1.30;;;4.80;98.20;;;;;;4990612;28;20567;-73
2022/02/01 09:30:14;;;;;;;2.90;2.27;;;4.80;98.20;;;;;;5005219;28;20778;-73
2022/02/01 09:32:41;;;;;;;1.60;1.33;;;4.80;98.20;;;;;;4994233;28;20582;-73
2022/02/01 09:35:08;;;;;;;1.63;1.40;;;4.80;98.20;;;;;;5004140;28;20488;-73
2022/02/01 09:37:38;;;;;;;1.67;1.40;;;4.80;98.20;;;;;;4995014;28;20863;-73
2022/02/01 09:40:05;;;;;;;1.63;1.40;;;4.80;98.20;;;;;;5003923;28;21038;-73
2022/02/01 09:42:32;;;;;;;1.63;1.40;;;4.80;98.20;;;;;;5009367;28;20482;-73
2022/02/01 09:44:59;;;;;;;1.70;1.40;;;4.90;98.20;;;;;;5005218;28;20490;-73
2022/02/01 09:47:34;;;;;;;1.63;1.30;;;4.90;98.20;;;;;;4991494;28;20574;-73
2022/02/01 09:50:01;;;;;;;1.70;1.40;;;4.90;98.20;;;;;;5004614;28;20464;-74
2022/02/01 09:52:30;;;;;;;1.60;1.30;;;4.90;98.20;;;;;;4994239;28;20494;-71
2022/02/01 09:54:58;;;;;;;1.60;1.30;;;4.90;98.20;;;;;;5001133;28;20550;-74
2022/02/01 09:57:25;;;;;;;1.60;1.30;;;4.90;98.20;;;;;;4991680;28;20499;-74
2022/02/01 09:59:56;;;;;;;1.60;1.30;;;5.00;98.20;;;;;;5003799;28;20554;-74
2022/02/01 10:02:35;;;;;;;1.83;1.63;;;5.00;98.20;;;;;;4992239;28;20496;-74
2022/02/01 10:05:02;;;;;;;1.60;1.30;;;5.00;98.20;;;;;;5002271;28;20484;-74
2022/02/01 10:07:29;;;;;;;1.67;1.30;;;5.10;98.20;;;;;;4993161;28;20567;-74
2022/02/01 10:09:58;;;;;;;1.60;1.40;;;5.10;98.20;;;;;;5004700;28;20464;-74
2022/02/01 10:12:30;;;;;;;1.67;1.40;;;5.10;98.20;;;;;;4993164;28;20498;-73
2022/02/01 10:15:02;;;;;;;1.63;1.30;;;5.20;98.20;;;;;;5000337;28;20500;-74
2022/02/01 10:17:37;;;;;;;1.63;1.30;;;5.20;98.20;;;;;;4991734;28;20539;-73
2022/02/01 10:20:04;;;;;;;1.60;1.30;;;5.30;98.20;;;;;;5004682;28;20570;-74
2022/02/01 10:22:33;;;;;;;1.63;1.40;;;5.30;98.20;;;;;;5008518;28;20487;-74
2022/02/01 10:25:05;;;;;;;1.60;1.20;;;5.30;98.20;;;;;;5002341;28;20487;-79
2022/02/01 10:27:34;;;;;;;1.60;1.20;;;5.40;98.20;;;;;;4995673;28;20484;-76
2022/02/01 10:30:07;;;;;;;1.63;1.30;;;5.40;98.20;;;;;;5003940;28;20460;-75
2022/02/01 10:32:52;;;;;;;1.60;1.20;;;5.40;98.20;;;;;;4993485;28;20487;-76
2022/02/01 10:35:31;;;;;;;1.67;1.30;;;5.40;98.20;;;;;;5003701;28;20515;-75
2022/02/01 10:38:00;;;;;;;1.60;1.30;;;5.40;98.20;;;;;;4993368;28;20822;-74
2022/02/01 10:40:40;;;;;;;1.63;1.30;;;5.50;98.20;;;;;;5001013;28;20488;-77
2022/02/01 10:43:16;;;;;;;1.60;1.30;;;5.50;98.20;;;;;;4994184;28;20834;-77
2022/02/01 10:45:44;;;;;;;1.60;1.30;;;5.50;98.20;;;;;;5002420;28;20572;-74
2022/02/01 10:48:15;;;;;;;1.63;1.27;;;5.60;98.20;;;;;;4991781;28;20484;-77
2022/02/01 10:50:42;;;;;;;1.70;1.40;;;5.60;98.20;;;;;;5001811;28;20460;-73
2022/02/01 10:53:19;;;;;;;1.70;1.47;;;5.60;98.20;;;;;;4990204;28;20491;-73
2022/02/01 10:55:48;;;;;;;1.60;1.30;;;5.60;98.20;;;;;;5000133;28;20872;-72
2022/02/01 10:58:16;;;;;;;1.67;1.30;;;5.70;98.20;;;;;;4988302;28;20936;-72
2022/02/01 11:00:47;;;;;;;1.67;1.30;;;5.80;98.20;;;;;;4998599;28;20523;-72
2022/02/01 11:03:15;;;;;;;1.70;1.53;;;5.80;98.20;;;;;;4992122;28;20996;-72
2022/02/01 11:05:47;;;;;;;1.70;1.40;;;5.90;98.20;;;;;;5001229;28;20483;-73
2022/02/01 11:08:16;;;;;;;1.60;1.20;;;5.90;98.20;;;;;;4993423;28;20498;-72
2022/02/01 11:10:45;;;;;;;1.63;1.20;;;5.90;98.20;;;;;;5002430;28;20467;-73
2022/02/01 11:13:13;;;;;;;1.63;1.30;;;6.00;98.20;;;;;;4991619;28;20476;-74
2022/02/01 11:15:41;;;;;;;1.60;1.20;;;6.00;98.20;;;;;;4998945;28;20909;-74
2022/02/01 11:18:15;;;;;;;1.60;1.20;;;6.10;98.20;;;;;;4990351;28;20996;-73
2022/02/01 11:20:47;;;;;;;1.67;1.40;;;6.10;98.20;;;;;;4999155;28;20912;-74
2022/02/01 11:23:17;;;;;;;1.60;1.27;;;6.10;98.20;;;;;;4990634;28;20550;-74
2022/02/01 11:25:47;;;;;;;1.60;1.30;;;6.10;98.20;;;;;;5000527;28;20583;-73
2022/02/01 11:28:35;;;;;;;1.67;1.27;;;6.20;98.20;;;;;;4988542;28;20891;-73
2022/02/01 11:31:03;;;;;;;1.70;1.30;;;6.20;98.20;;;;;;4992304;28;20821;-74
2022/02/01 11:33:37;;;;;;;1.60;1.27;;;6.30;98.20;;;;;;5002238;28;20468;-73
2022/02/01 11:36:05;;;;;;;1.67;1.30;;;6.30;98.20;;;;;;4990210;28;20819;-74
2022/02/01 11:38:32;;;;;;;1.63;1.30;;;6.30;98.20;;;;;;5003156;28;20468;-73
2022/02/01 11:41:02;;;;;;;1.60;1.30;;;6.30;98.20;;;;;;4991988;28;20503;-74
2022/02/01 11:43:31;;;;;;;1.60;1.20;;;6.30;98.20;;;;;;5002344;28;20504;-73
2022/02/01 11:46:00;;;;;;;1.60;1.20;;;6.40;98.20;;;;;;4987101;28;20499;-73
2022/02/01 11:48:29;;;;;;;1.60;1.20;;;6.40;98.20;;;;;;5000918;28;20491;-71
2022/02/01 11:50:59;;;;;;;1.60;1.30;;;6.40;98.20;;;;;;4993561;28;20467;-73
2022/02/01 11:53:29;;;;;;;1.60;1.20;;;6.40;98.20;;;;;;5016549;28;20475;-73
2022/02/01 11:55:57;;;;;;;1.60;1.23;;;6.40;98.20;;;;;;4988310;28;20490;-72
2022/02/01 11:58:33;;;;;;;1.63;1.20;;;6.40;98.20;;;;;;5002545;28;20614;-72
2022/02/01 12:01:01;;;;;;;1.60;1.20;;;6.40;98.20;;;;;;4992306;28;21145;-71
2022/02/01 12:03:31;;;;;;;1.67;1.30;;;6.50;98.20;;;;;;5000655;28;20983;-71
2022/02/01 12:06:05;;;;;;;1.60;1.30;;;6.50;98.20;;;;;;4991783;28;20484;-72
2022/02/01 12:08:34;;;;;;;1.60;1.20;;;6.50;98.20;;;;;;5001332;28;20952;-72
2022/02/01 12:11:07;;;;;;;1.60;1.20;;;6.50;98.20;;;;;;4990051;28;20471;-72
2022/02/01 12:13:36;;;;;;;1.60;1.27;;;6.60;98.20;;;;;;5001941;28;20980;-72
2022/02/01 12:16:05;;;;;;;1.80;1.70;;;6.60;98.20;;;;;;4986854;28;20499;-71
2022/02/01 12:18:36;;;;;;;1.60;1.20;;;6.60;98.20;;;;;;5000520;28;20521;-72
2022/02/01 12:21:10;;;;;;;1.67;1.30;;;6.70;98.20;;;;;;4989619;28;20777;-72
2022/02/01 12:23:38;;;;;;;1.63;1.33;;;6.70;98.20;;;;;;5012840;28;20461;-72
2022/02/01 12:26:05;;;;;;;2.00;1.80;;;6.70;98.20;;;;;;4989007;28;20491;-72
2022/02/01 12:28:34;;;;;;;2.73;2.37;;;6.70;98.20;;;;;;4991904;28;20476;-73
2022/02/01 12:31:10;;;;;;;1.60;1.20;;;6.70;98.20;;;;;;4990714;28;20469;-73
2022/02/01 12:33:40;;;;;;;1.70;1.40;;;6.80;98.20;;;;;;5007929;28;20953;-74
2022/02/01 12:36:07;;;;;;;1.70;1.40;;;6.80;98.20;;;;;;4983199;28;20550;-72
2022/02/01 12:38:34;;;;;;;1.60;1.20;;;6.80;98.20;;;;;;4999462;28;21008;-73
2022/02/01 12:41:12;;;;;;;1.60;1.20;;;6.90;98.20;;;;;;4991383;28;20491;-72
2022/02/01 12:43:56;;;;;;;1.60;1.30;;;6.90;98.20;;;;;;5014419;28;20487;-73
2022/02/01 12:46:34;;;;;;;1.60;1.20;;;6.90;98.20;;;;;;4990687;28;20566;-73
2022/02/01 12:49:01;;;;;;;1.60;1.20;;;6.90;98.20;;;;;;4999745;28;20475;-73
2022/02/01 12:51:38;;;;;;;1.60;1.20;;;6.90;98.20;;;;;;4996693;28;21092;-72
2022/02/01 12:54:05;;;;;;;1.60;1.30;;;6.90;98.20;;;;;;5009716;28;21198;-73
2022/02/01 12:56:32;;;;;;;1.60;1.20;;;7.00;98.20;;;;;;4989669;28;21154;-72
2022/02/01 12:59:01;;;;;;;1.67;1.20;;;7.00;98.20;;;;;;5002929;28;20842;-73
2022/02/01 13:01:34;;;;;;;1.60;1.30;;;7.00;98.20;;;;;;4990658;28;21032;-73
2022/02/01 13:04:02;;;;;;;1.60;1.30;;;7.10;98.20;;;;;;5005015;28;20856;-72
2022/02/01 13:06:30;;;;;;;1.63;1.30;;;7.10;98.20;;;;;;4995419;28;20526;-73
2022/02/01 13:17:25;;;;;;;1.70;1.40;;;7.10;98.20;;;;;;4990862;28;20475;-73
2022/02/01 13:20:11;;;;;;;1.60;1.20;;;7.10;98.20;;;;;;5003670;28;21118;-74
2022/02/01 13:22:50;;;;;;;1.70;1.40;;;7.10;98.20;;;;;;4989860;28;20491;-73
2022/02/01 13:25:17;;;;;;;1.67;1.37;;;7.10;98.20;;;;;;4998394;28;21019;-73
2022/02/01 13:27:43;;;;;;;1.60;1.20;;;7.20;98.20;;;;;;4987560;28;20480;-73
2022/02/01 13:30:13;;;;;;;1.60;1.23;;;7.10;98.20;;;;;;5001644;28;20479;-73
2022/02/01 13:32:43;;;;;;;1.60;1.20;;;7.20;98.20;;;;;;5005320;28;20499;-73
2022/02/01 13:35:12;;;;;;;1.60;1.20;;;7.20;98.20;;;;;;5004143;28;21003;-72
2022/02/01 13:37:46;;;;;;;1.60;1.20;;;7.20;98.20;;;;;;4993638;28;20491;-73
2022/02/01 13:40:24;;;;;;;1.60;1.23;;;7.20;98.20;;;;;;5002944;28;20869;-72
2022/02/01 13:42:51;;;;;;;1.70;1.33;;;7.20;98.20;;;;;;4990231;28;20480;-74
2022/02/01 13:45:18;;;;;;;1.60;1.20;;;7.20;98.20;;;;;;4998651;28;20495;-73
2022/02/01 13:47:50;;;;;;;1.67;1.20;;;7.20;98.20;;;;;;4992686;28;20530;-72
2022/02/01 13:50:20;;;;;;;1.60;1.20;;;7.20;98.20;;;;;;5002146;28;20518;-72
2022/02/01 13:52:58;;;;;;;1.60;1.20;;;7.20;98.20;;;;;;4989994;28;20480;-72
2022/02/01 13:55:28;;;;;;;1.60;1.20;;;7.20;98.20;;;;;;4998986;28;21098;-72
2022/02/01 13:58:03;;;;;;;1.60;1.30;;;7.20;98.20;;;;;;4988405;28;20507;-71
2022/02/01 14:00:35;;;;;;;1.60;1.30;;;7.20;98.20;;;;;;5000510;28;20569;-72
2022/02/01 14:03:14;;;;;;;1.60;1.30;;;7.20;98.20;;;;;;4992070;28;20510;-72
2022/02/01 14:05:43;;;;;;;1.70;1.40;;;7.30;98.20;;;;;;5003007;28;20563;-74
2022/02/01 14:08:25;;;;;;;1.60;1.30;;;7.30;98.20;;;;;;4991384;28;20488;-72
2022/02/01 14:11:07;;;;;;;1.70;1.40;;;7.30;98.20;;;;;;4995181;28;20467;-72
2022/02/01 14:14:08;;;;;;;1.60;1.20;;;7.30;98.20;;;;;;5015261;28;20464;-72
2022/02/01 14:28:08;;;;;;;1.60;1.30;;;7.40;98.20;;;;;;4990868;28;21034;-74
2022/02/01 14:33:52;;;;;;;1.60;1.20;;;7.40;98.20;;;;;;5007318;28;20936;-73
2022/02/01 14:36:22;;;;;;;1.60;1.20;;;7.40;98.20;;;;;;4993077;28;20578;-74